Time,TemperatureF,DewpointF,PressureIn,WindDirection,WindDirectionDegrees,WindSpeedMPH,WindSpeedGustMPH,Humidity,HourlyPrecipIn,Conditions,Clouds,dailyrainin,SoftwareType,DateUTC
2013-09-17 00:03:00,51.6,42.2,29.50,SE,135,0.0,0.0,70,0.00,,---,0.00,VWS V13.01,2013-09-17 05:03:00,
2013-09-17 00:09:00,51.6,42.5,29.50,SE,135,0.0,0.0,71,0.00,,---,0.00,VWS V13.01,2013-09-17 05:09:00,
2013-09-17 00:14:00,51.4,42.3,29.50,SE,135,0.0,0.0,71,0.00,,---,0.00,VWS V13.01,2013-09-17 05:14:00,
2013-09-17 00:20:00,51.4,42.3,29.50,SE,135,0.0,0.0,71,0.00,,---,0.00,VWS V13.01,2013-09-17 05:20:00,
2013-09-17 00:25:00,51.2,42.1,29.50,SE,135,0.0,0.0,71,0.00,,---,0.00,VWS V13.01,2013-09-17 05:25:00,
2013-09-17 00:30:00,51.2,42.1,29.49,SE,135,0.0,0.0,71,0.00,,---,0.00,VWS V13.01,2013-09-17 05:30:00,
2013-09-17 00:35:00,51.0,42.3,29.49,SE,135,0.0,0.0,72,0.00,,---,0.00,VWS V13.01,2013-09-17 05:35:00,
2013-09-17 00:40:00,51.0,42.3,29.50,SE,135,0.0,0.0,72,0.00,,---,0.00,VWS V13.01,2013-09-17 05:40:00,
2013-09-17 00:45:00,50.9,42.2,29.50,SE,135,0.0,0.0,72,0.00,,---,0.00,VWS V13.01,2013-09-17 05:45:00,
2013-09-17 00:50:00,50.9,42.2,29.50,SE,135,0.0,0.0,72,0.00,,---,0.00,VWS V13.01,2013-09-17 05:50:00,
2013-09-17 00:55:00,50.9,42.2,29.50,SE,135,0.0,0.0,72,0.00,,---,0.00,VWS V13.01,2013-09-17 05:55:00,
2013-09-17 01:00:00,50.7,42.0,29.50,SE,135,0.0,0.0,72,0.00,,---,0.00,VWS V13.01,2013-09-17 06:00:00,
2013-09-17 01:05:00,50.7,42.0,29.50,SE,135,0.0,0.0,72,0.00,,---,0.00,VWS V13.01,2013-09-17 06:05:00,
2013-09-17 01:11:00,50.7,42.0,29.50,SE,135,0.0,0.0,72,0.00,,---,0.00,VWS V13.01,2013-09-17 06:11:00,
2013-09-17 01:16:00,50.7,42.4,29.49,SE,135,0.0,0.0,73,0.00,,---,0.00,VWS V13.01,2013-09-17 06:16:00,
2013-09-17 01:21:00,50.7,42.4,29.49,SE,135,0.0,0.0,73,0.00,,---,0.00,VWS V13.01,2013-09-17 06:21:00,
2013-09-17 01:26:00,50.5,42.2,29.49,SE,135,0.0,0.0,73,0.00,,---,0.00,VWS V13.01,2013-09-17 06:26:00,
2013-09-17 01:31:00,50.5,42.2,29.49,SE,135,0.0,0.0,73,0.00,,---,0.00,VWS V13.01,2013-09-17 06:31:00,
2013-09-17 01:36:00,50.5,42.2,29.49,SE,135,0.0,0.0,73,0.00,,---,0.00,VWS V13.01,2013-09-17 06:36:00,
2013-09-17 01:42:00,50.5,42.5,29.49,SE,135,0.0,0.0,74,0.00,,---,0.00,VWS V13.01,2013-09-17 06:42:00,
2013-09-17 01:47:00,50.5,42.5,29.49,SE,135,0.0,0.0,74,0.00,,---,0.00,VWS V13.01,2013-09-17 06:47:00,
2013-09-17 01:53:00,50.5,42.5,29.49,SE,135,0.0,0.0,74,0.00,,---,0.00,VWS V13.01,2013-09-17 06:53:00,
2013-09-17 01:58:00,50.5,42.5,29.49,SE,135,0.0,0.0,74,0.00,,---,0.00,VWS V13.01,2013-09-17 06:58:00,
2013-09-17 02:03:00,50.3,42.3,29.49,SE,135,0.0,0.0,74,0.00,,---,0.00,VWS V13.01,2013-09-17 07:03:00,
2013-09-17 02:08:00,50.3,42.3,29.49,SE,135,0.0,0.0,74,0.00,,---,0.00,VWS V13.01,2013-09-17 07:08:00,
2013-09-17 02:13:00,50.3,42.3,29.48,SE,135,0.0,0.0,74,0.00,,---,0.00,VWS V13.01,2013-09-17 07:13:00,
2013-09-17 02:18:00,50.1,42.2,29.48,SE,135,0.0,0.0,74,0.00,,---,0.00,VWS V13.01,2013-09-17 07:18:00,
2013-09-17 02:23:00,50.1,42.2,29.48,SE,135,0.0,0.0,74,0.00,,---,0.00,VWS V13.01,2013-09-17 07:23:00,
2013-09-17 02:28:00,50.1,42.2,29.48,SE,135,0.0,0.0,74,0.00,,---,0.00,VWS V13.01,2013-09-17 07:28:00,
2013-09-17 02:33:00,50.1,42.5,29.48,SE,135,0.0,0.0,75,0.00,,---,0.00,VWS V13.01,2013-09-17 07:33:00,
2013-09-17 02:38:00,50.1,42.5,29.48,SE,135,0.0,0.0,75,0.00,,---,0.00,VWS V13.01,2013-09-17 07:38:00,
2013-09-17 02:43:00,50.1,42.5,29.48,SE,135,0.0,0.0,75,0.00,,---,0.00,VWS V13.01,2013-09-17 07:43:00,
2013-09-17 02:49:00,49.8,42.2,29.48,SSE,158,0.0,0.0,75,0.00,,---,0.00,VWS V13.01,2013-09-17 07:49:00,
2013-09-17 02:54:00,49.8,42.2,29.48,SSE,158,0.0,0.0,75,0.00,,---,0.00,VWS V13.01,2013-09-17 07:54:00,
2013-09-17 02:59:00,49.8,42.5,29.48,SSE,158,0.0,0.0,76,0.00,,---,0.00,VWS V13.01,2013-09-17 07:59:00,
2013-09-17 03:04:00,49.8,42.5,29.48,SE,135,0.0,0.0,76,0.00,,---,0.00,VWS V13.01,2013-09-17 08:04:00,
2013-09-17 03:09:00,49.8,42.5,29.49,SE,135,0.0,0.0,76,0.00,,---,0.00,VWS V13.01,2013-09-17 08:09:00,
2013-09-17 03:14:00,49.8,42.5,29.48,SE,135,0.0,0.0,76,0.00,,---,0.00,VWS V13.01,2013-09-17 08:14:00,
2013-09-17 03:19:00,50.0,42.7,29.48,ESE,112,5.8,5.8,76,0.00,,---,0.00,VWS V13.01,2013-09-17 08:19:00,
2013-09-17 03:24:00,49.8,42.9,29.48,SE,135,0.0,0.0,77,0.00,,---,0.00,VWS V13.01,2013-09-17 08:24:00,
2013-09-17 03:29:00,49.8,42.9,29.48,SSE,158,12.8,12.8,77,0.00,,---,0.00,VWS V13.01,2013-09-17 08:29:00,
2013-09-17 03:34:00,49.8,42.9,29.48,SE,135,0.0,0.0,77,0.00,,---,0.00,VWS V13.01,2013-09-17 08:34:00,
2013-09-17 03:39:00,49.8,42.9,29.47,SE,135,0.0,0.0,77,0.00,,---,0.00,VWS V13.01,2013-09-17 08:39:00,
2013-09-17 03:45:00,49.8,43.2,29.47,SSE,158,0.0,0.0,78,0.00,,---,0.00,VWS V13.01,2013-09-17 08:45:00,
2013-09-17 03:50:00,49.8,43.2,29.47,SSE,158,0.0,7.0,78,0.00,,---,0.00,VWS V13.01,2013-09-17 08:50:00,
2013-09-17 03:55:00,49.8,43.2,29.47,SE,135,0.0,0.0,78,0.00,,---,0.00,VWS V13.01,2013-09-17 08:55:00,
2013-09-17 04:00:00,49.8,43.2,29.47,SE,135,0.0,0.0,78,0.00,,---,0.00,VWS V13.01,2013-09-17 09:00:00,
2013-09-17 04:05:00,50.0,43.4,29.47,SSE,158,0.0,16.4,78,0.00,,---,0.00,VWS V13.01,2013-09-17 09:05:00,
2013-09-17 04:10:00,50.1,43.8,29.46,SSE,158,4.0,4.0,79,0.00,,---,0.00,VWS V13.01,2013-09-17 09:10:00,
2013-09-17 04:15:00,50.1,43.8,29.46,ESE,112,0.0,0.0,79,0.00,,---,0.00,VWS V13.01,2013-09-17 09:15:00,
2013-09-17 04:20:00,50.1,43.8,29.46,SE,135,0.0,0.0,79,0.00,,---,0.00,VWS V13.01,2013-09-17 09:20:00,
2013-09-17 04:25:00,50.1,43.8,29.46,SE,135,0.0,0.0,79,0.00,,---,0.00,VWS V13.01,2013-09-17 09:25:00,
2013-09-17 04:30:00,50.1,43.8,29.46,SSE,158,0.0,0.0,79,0.00,,---,0.00,VWS V13.01,2013-09-17 09:30:00,
2013-09-17 04:35:00,50.1,43.8,29.46,SE,135,0.0,4.4,79,0.00,,---,0.00,VWS V13.01,2013-09-17 09:35:00,
2013-09-17 04:40:00,50.1,43.8,29.46,SE,135,0.0,4.8,79,0.00,,---,0.00,VWS V13.01,2013-09-17 09:40:00,
2013-09-17 04:45:00,50.1,43.8,29.46,SSE,158,0.0,0.0,79,0.00,,---,0.00,VWS V13.01,2013-09-17 09:45:00,
2013-09-17 04:50:00,50.0,43.8,29.46,SE,135,10.2,10.2,79,0.00,,---,0.00,VWS V13.01,2013-09-17 09:50:00,
2013-09-17 04:55:00,49.8,43.9,29.46,SE,135,0.0,0.0,80,0.00,,---,0.00,VWS V13.01,2013-09-17 09:55:00,
2013-09-17 05:00:00,49.8,43.9,29.46,SE,135,7.6,7.6,80,0.00,,---,0.00,VWS V13.01,2013-09-17 10:00:00,
2013-09-17 05:05:00,49.8,43.9,29.46,SE,135,0.0,0.0,80,0.00,,---,0.00,VWS V13.01,2013-09-17 10:05:00,
2013-09-17 05:10:00,49.8,43.9,29.45,SE,135,0.0,0.0,80,0.00,,---,0.00,VWS V13.01,2013-09-17 10:10:00,
2013-09-17 05:15:00,49.8,43.9,29.45,ESE,112,0.0,0.0,80,0.00,,---,0.00,VWS V13.01,2013-09-17 10:15:00,
2013-09-17 05:20:00,49.8,43.9,29.45,SE,135,0.0,0.0,80,0.00,,---,0.00,VWS V13.01,2013-09-17 10:20:00,
2013-09-17 05:25:00,49.8,43.9,29.45,SE,135,0.0,0.0,80,0.00,,---,0.00,VWS V13.01,2013-09-17 10:25:00,
2013-09-17 05:30:00,49.8,43.9,29.45,SE,135,0.0,0.0,80,0.00,,---,0.00,VWS V13.01,2013-09-17 10:30:00,
2013-09-17 05:36:00,49.8,43.9,29.45,SE,135,0.0,0.0,80,0.00,,---,0.00,VWS V13.01,2013-09-17 10:36:00,
2013-09-17 05:41:00,49.8,43.9,29.45,SE,135,0.0,0.0,80,0.00,,---,0.00,VWS V13.01,2013-09-17 10:41:00,
2013-09-17 05:46:00,49.8,44.2,29.45,ESE,112,0.0,0.0,81,0.00,,---,0.00,VWS V13.01,2013-09-17 10:46:00,
2013-09-17 05:51:00,49.8,44.2,29.45,SSE,158,6.2,6.2,81,0.00,,---,0.00,VWS V13.01,2013-09-17 10:51:00,
2013-09-17 05:56:00,49.8,44.2,29.45,SSE,158,0.0,0.0,81,0.00,,---,0.00,VWS V13.01,2013-09-17 10:56:00,
2013-09-17 06:01:00,49.8,44.2,29.46,SE,135,0.0,0.0,81,0.00,,---,0.00,VWS V13.01,2013-09-17 11:01:00,
2013-09-17 06:06:00,49.8,44.2,29.46,SE,135,0.0,0.0,81,0.00,,---,0.00,VWS V13.01,2013-09-17 11:06:00,
2013-09-17 06:11:00,49.8,44.2,29.45,ESE,112,0.0,0.0,81,0.00,,---,0.00,VWS V13.01,2013-09-17 11:11:00,
2013-09-17 06:16:00,49.8,44.2,29.45,SE,135,0.0,2.2,81,0.00,,---,0.00,VWS V13.01,2013-09-17 11:16:00,
2013-09-17 06:21:00,49.8,44.2,29.45,SE,135,0.0,0.0,81,0.00,,---,0.00,VWS V13.01,2013-09-17 11:21:00,
2013-09-17 06:26:00,49.8,44.2,29.45,SSE,158,0.0,0.0,81,0.00,,---,0.00,VWS V13.01,2013-09-17 11:26:00,
2013-09-17 06:31:00,49.8,44.2,29.45,SE,135,0.0,0.0,81,0.00,,---,0.00,VWS V13.01,2013-09-17 11:31:00,
2013-09-17 06:36:00,49.8,44.2,29.45,SE,135,0.0,0.0,81,0.00,,---,0.00,VWS V13.01,2013-09-17 11:36:00,
2013-09-17 06:41:00,49.8,44.2,29.45,SE,135,0.0,0.0,81,0.00,,---,0.00,VWS V13.01,2013-09-17 11:41:00,
2013-09-17 06:46:00,49.8,44.2,29.45,SE,135,0.0,0.0,81,0.00,,---,0.00,VWS V13.01,2013-09-17 11:46:00,
2013-09-17 06:51:00,49.8,44.2,29.45,SSE,158,6.6,6.6,81,0.00,,---,0.00,VWS V13.01,2013-09-17 11:51:00,
2013-09-17 06:56:00,49.8,44.2,29.45,SE,135,0.0,0.0,81,0.00,,---,0.00,VWS V13.01,2013-09-17 11:56:00,
2013-09-17 07:01:00,49.8,44.5,29.45,SSE,158,12.0,12.0,82,0.00,,---,0.00,VWS V13.01,2013-09-17 12:01:00,
2013-09-17 07:06:00,49.8,44.5,29.45,SSE,158,0.0,0.0,82,0.00,,---,0.00,VWS V13.01,2013-09-17 12:06:00,
2013-09-17 07:11:00,49.8,44.5,29.45,SSE,158,0.0,0.0,82,0.00,,---,0.00,VWS V13.01,2013-09-17 12:11:00,
2013-09-17 07:16:00,49.8,44.5,29.46,SE,135,5.8,5.8,82,0.00,,---,0.00,VWS V13.01,2013-09-17 12:16:00,
2013-09-17 07:21:00,49.8,44.5,29.46,SE,135,0.0,0.0,82,0.00,,---,0.00,VWS V13.01,2013-09-17 12:21:00,
2013-09-17 07:26:00,49.8,44.5,29.44,SE,135,2.2,2.2,82,0.00,,---,0.00,VWS V13.01,2013-09-17 12:26:00,
2013-09-17 07:31:00,49.8,44.5,29.45,ESE,112,0.0,0.0,82,0.00,,---,0.00,VWS V13.01,2013-09-17 12:31:00,
2013-09-17 07:36:00,49.8,44.5,29.45,SE,135,0.0,0.0,82,0.00,,---,0.00,VWS V13.01,2013-09-17 12:36:00,
2013-09-17 07:41:00,49.8,44.5,29.45,SE,135,0.0,0.0,82,0.00,,---,0.00,VWS V13.01,2013-09-17 12:41:00,
2013-09-17 07:46:00,50.1,44.8,29.45,SE,135,0.0,0.0,82,0.00,,---,0.00,VWS V13.01,2013-09-17 12:46:00,
2013-09-17 07:51:00,50.1,44.8,29.44,SE,135,0.0,0.0,82,0.00,,---,0.00,VWS V13.01,2013-09-17 12:51:00,
2013-09-17 07:56:00,50.1,44.8,29.45,SE,135,0.0,0.0,82,0.00,,---,0.00,VWS V13.01,2013-09-17 12:56:00,
2013-09-17 08:01:00,50.1,44.8,29.45,SSE,158,0.0,0.0,82,0.00,,---,0.00,VWS V13.01,2013-09-17 13:01:00,
2013-09-17 08:06:00,50.3,45.0,29.45,SSE,158,0.0,0.0,82,0.00,,---,0.00,VWS V13.01,2013-09-17 13:06:00,
2013-09-17 08:11:00,50.5,45.2,29.44,SE,135,0.0,0.0,82,0.00,,---,0.00,VWS V13.01,2013-09-17 13:11:00,
2013-09-17 08:17:00,50.5,45.2,29.44,SE,135,3.0,3.0,82,0.00,,---,0.00,VWS V13.01,2013-09-17 13:17:00,
2013-09-17 08:22:00,50.7,45.4,29.44,SE,135,0.0,0.0,82,0.00,,---,0.00,VWS V13.01,2013-09-17 13:22:00,
2013-09-17 08:27:00,50.7,45.4,29.44,SE,135,0.0,0.0,82,0.00,,---,0.00,VWS V13.01,2013-09-17 13:27:00,
2013-09-17 08:32:00,50.9,45.6,29.44,SE,135,0.0,0.0,82,0.00,,---,0.00,VWS V13.01,2013-09-17 13:32:00,
2013-09-17 08:37:00,51.2,45.9,29.44,SE,135,0.0,0.0,82,0.00,,---,0.00,VWS V13.01,2013-09-17 13:37:00,
2013-09-17 08:42:00,51.4,46.1,29.43,SE,135,0.0,0.0,82,0.00,,---,0.00,VWS V13.01,2013-09-17 13:42:00,
2013-09-17 08:47:00,51.6,46.3,29.43,ESE,112,0.0,0.0,82,0.00,,---,0.00,VWS V13.01,2013-09-17 13:47:00,
2013-09-17 08:52:00,51.8,46.5,29.43,SE,135,0.0,0.0,82,0.00,,---,0.00,VWS V13.01,2013-09-17 13:52:00,
2013-09-17 08:57:00,51.8,46.5,29.43,SE,135,0.0,0.0,82,0.00,,---,0.00,VWS V13.01,2013-09-17 13:57:00,
2013-09-17 09:02:00,51.9,46.3,29.42,ESE,112,0.0,0.0,81,0.00,,---,0.00,VWS V13.01,2013-09-17 14:02:00,
2013-09-17 09:07:00,52.3,46.7,29.43,SE,135,0.0,0.0,81,0.00,,---,0.00,VWS V13.01,2013-09-17 14:07:00,
2013-09-17 09:12:00,52.5,46.8,29.42,SE,135,0.0,0.0,81,0.00,,---,0.00,VWS V13.01,2013-09-17 14:12:00,
2013-09-17 09:17:00,52.7,47.0,29.43,SE,135,0.0,0.0,81,0.00,,---,0.00,VWS V13.01,2013-09-17 14:17:00,
2013-09-17 09:22:00,52.8,47.1,29.43,East,90,0.0,10.2,81,0.00,,---,0.00,VWS V13.01,2013-09-17 14:22:00,
2013-09-17 09:27:00,53.2,47.5,29.43,SSE,158,0.0,0.0,81,0.00,,---,0.00,VWS V13.01,2013-09-17 14:27:00,
2013-09-17 09:32:00,53.2,47.2,29.42,SSE,158,0.0,0.0,80,0.00,,---,0.00,VWS V13.01,2013-09-17 14:32:00,
2013-09-17 09:37:00,53.4,47.4,29.43,SE,135,0.0,0.0,80,0.00,,---,0.00,VWS V13.01,2013-09-17 14:37:00,
2013-09-17 09:42:00,53.7,47.7,29.42,SE,135,0.0,0.0,80,0.00,,---,0.00,VWS V13.01,2013-09-17 14:42:00,
2013-09-17 09:47:00,53.9,47.9,29.43,SE,135,0.0,0.0,80,0.00,,---,0.00,VWS V13.01,2013-09-17 14:47:00,
2013-09-17 09:52:00,54.1,48.1,29.43,SE,135,4.8,4.8,80,0.00,,---,0.00,VWS V13.01,2013-09-17 14:52:00,
2013-09-17 09:57:00,54.1,48.1,29.43,SE,135,0.0,0.0,80,0.00,,---,0.00,VWS V13.01,2013-09-17 14:57:00,
2013-09-17 10:02:00,54.3,48.3,29.42,SE,135,8.8,8.8,80,0.00,,---,0.00,VWS V13.01,2013-09-17 15:02:00,
2013-09-17 10:07:00,54.5,48.5,29.43,SE,135,0.0,0.0,80,0.00,,---,0.00,VWS V13.01,2013-09-17 15:07:00,
2013-09-17 10:12:00,54.6,48.6,29.42,SSE,158,0.0,0.0,80,0.00,,---,0.00,VWS V13.01,2013-09-17 15:12:00,
2013-09-17 10:17:00,54.6,48.2,29.42,SSE,158,0.0,0.0,79,0.00,,---,0.00,VWS V13.01,2013-09-17 15:17:00,
2013-09-17 10:22:00,54.8,48.4,29.42,ESE,112,0.0,0.0,79,0.00,,---,0.00,VWS V13.01,2013-09-17 15:22:00,
2013-09-17 10:27:00,55.0,49.0,29.42,SE,135,2.2,2.2,80,0.00,,---,0.00,VWS V13.01,2013-09-17 15:27:00,
2013-09-17 10:32:00,55.2,49.2,29.42,SE,135,0.0,0.0,80,0.00,,---,0.00,VWS V13.01,2013-09-17 15:32:00,
2013-09-17 10:37:00,55.0,49.0,29.42,SE,135,0.0,0.0,80,0.00,,---,0.00,VWS V13.01,2013-09-17 15:37:00,
2013-09-17 10:42:00,55.2,49.2,29.42,SSE,158,4.8,4.8,80,0.00,,---,0.00,VWS V13.01,2013-09-17 15:42:00,
2013-09-17 10:47:00,55.2,49.2,29.42,SE,135,0.0,0.0,80,0.00,,---,0.00,VWS V13.01,2013-09-17 15:47:00,
2013-09-17 10:52:00,55.2,49.5,29.42,South,180,0.0,0.0,81,0.00,,---,0.00,VWS V13.01,2013-09-17 15:52:00,
2013-09-17 10:57:00,55.2,49.5,29.42,South,180,0.0,0.0,81,0.00,,---,0.00,VWS V13.01,2013-09-17 15:57:00,
2013-09-17 11:03:00,55.2,49.5,29.42,SE,135,0.0,0.0,81,0.00,,---,0.00,VWS V13.01,2013-09-17 16:03:00,
2013-09-17 11:08:00,55.0,49.3,29.42,SE,135,8.0,8.0,81,0.00,,---,0.00,VWS V13.01,2013-09-17 16:08:00,
2013-09-17 11:13:00,55.0,49.3,29.42,SSE,158,0.0,0.0,81,0.00,,---,0.00,VWS V13.01,2013-09-17 16:13:00,
2013-09-17 11:18:00,55.0,49.3,29.42,SE,135,0.0,0.0,81,0.00,,---,0.00,VWS V13.01,2013-09-17 16:18:00,
2013-09-17 11:23:00,55.0,49.6,29.41,SE,135,0.0,0.0,82,0.00,,---,0.00,VWS V13.01,2013-09-17 16:23:00,
2013-09-17 11:28:00,55.2,49.8,29.41,SSE,158,0.0,0.0,82,0.00,,---,0.00,VWS V13.01,2013-09-17 16:28:00,
2013-09-17 11:33:00,55.2,49.8,29.41,SE,135,0.0,2.6,82,0.00,,---,0.00,VWS V13.01,2013-09-17 16:33:00,
2013-09-17 11:38:00,55.2,49.8,29.41,SE,135,0.0,0.0,82,0.00,,---,0.00,VWS V13.01,2013-09-17 16:38:00,
2013-09-17 11:43:00,55.4,50.0,29.41,SE,135,0.0,0.0,82,0.00,,---,0.00,VWS V13.01,2013-09-17 16:43:00,
2013-09-17 11:48:00,55.5,50.1,29.41,SSE,158,0.0,7.6,82,0.00,,---,0.00,VWS V13.01,2013-09-17 16:48:00,
2013-09-17 11:53:00,55.5,50.1,29.41,SE,135,6.6,6.6,82,0.00,,---,0.00,VWS V13.01,2013-09-17 16:53:00,
2013-09-17 11:58:00,55.7,50.3,29.41,SE,135,0.0,0.0,82,0.00,,---,0.00,VWS V13.01,2013-09-17 16:58:00,
2013-09-17 12:03:00,55.5,50.1,29.40,SSW,202,0.0,0.0,82,0.00,,---,0.00,VWS V13.01,2013-09-17 17:03:00,
2013-09-17 12:08:00,55.7,50.6,29.40,SSE,158,0.0,0.0,83,0.00,,---,0.00,VWS V13.01,2013-09-17 17:08:00,
2013-09-17 12:13:00,55.9,50.8,29.40,SE,135,0.0,0.0,83,0.00,,---,0.00,VWS V13.01,2013-09-17 17:13:00,
2013-09-17 12:18:00,55.9,50.8,29.40,SE,135,12.4,12.4,83,0.00,,---,0.00,VWS V13.01,2013-09-17 17:18:00,
2013-09-17 12:23:00,55.9,50.8,29.40,SSE,158,0.0,0.0,83,0.00,,---,0.00,VWS V13.01,2013-09-17 17:23:00,
2013-09-17 12:28:00,56.1,51.0,29.39,SSE,158,0.0,0.0,83,0.00,,---,0.00,VWS V13.01,2013-09-17 17:28:00,
2013-09-17 12:33:00,56.3,51.2,29.39,SE,135,0.0,0.0,83,0.00,,---,0.00,VWS V13.01,2013-09-17 17:33:00,
2013-09-17 12:38:00,56.4,51.3,29.39,SE,135,0.0,0.0,83,0.00,,---,0.00,VWS V13.01,2013-09-17 17:38:00,
2013-09-17 12:43:00,56.6,51.5,29.39,SE,135,6.6,6.6,83,0.00,,---,0.00,VWS V13.01,2013-09-17 17:43:00,
2013-09-17 12:48:00,56.8,51.7,29.38,South,180,5.2,5.2,83,0.00,,---,0.00,VWS V13.01,2013-09-17 17:48:00,
2013-09-17 12:53:00,56.8,51.7,29.38,SSE,158,0.0,0.0,83,0.00,,---,0.00,VWS V13.01,2013-09-17 17:53:00,
2013-09-17 12:58:00,57.0,51.9,29.38,SE,135,0.0,0.0,83,0.00,,---,0.00,VWS V13.01,2013-09-17 17:58:00,
2013-09-17 13:03:00,57.0,51.9,29.38,SE,135,23.2,23.2,83,0.00,,---,0.00,VWS V13.01,2013-09-17 18:03:00,
2013-09-17 13:08:00,57.0,51.9,29.38,SE,135,10.6,10.6,83,0.00,,---,0.00,VWS V13.01,2013-09-17 18:08:00,
2013-09-17 13:13:00,57.0,51.9,29.37,SE,135,0.0,0.0,83,0.00,,---,0.00,VWS V13.01,2013-09-17 18:13:00,
2013-09-17 13:18:00,57.0,51.9,29.37,SE,135,4.4,4.4,83,0.00,,---,0.00,VWS V13.01,2013-09-17 18:18:00,
2013-09-17 13:23:00,57.0,51.9,29.37,SE,135,4.8,4.8,83,0.00,,---,0.00,VWS V13.01,2013-09-17 18:23:00,
2013-09-17 13:28:00,57.0,51.9,29.36,SE,135,0.0,0.0,83,0.02,,---,0.02,VWS V13.01,2013-09-17 18:28:00,
2013-09-17 13:33:00,57.3,52.2,29.36,SE,135,0.0,0.0,83,0.02,,---,0.02,VWS V13.01,2013-09-17 18:33:00,
2013-09-17 13:38:00,57.2,52.1,29.36,SSE,158,0.0,0.0,83,0.02,,---,0.02,VWS V13.01,2013-09-17 18:38:00,
2013-09-17 13:43:00,57.2,52.4,29.36,ESE,112,0.0,0.0,84,0.02,,---,0.02,VWS V13.01,2013-09-17 18:43:00,
2013-09-17 13:48:00,57.3,52.5,29.35,SE,135,0.0,0.0,84,0.02,,---,0.02,VWS V13.01,2013-09-17 18:48:00,
2013-09-17 13:53:00,57.2,52.4,29.35,SSE,158,0.0,0.0,84,0.02,,---,0.02,VWS V13.01,2013-09-17 18:53:00,
2013-09-17 13:58:00,57.3,52.5,29.35,SE,135,5.2,5.2,84,0.02,,---,0.02,VWS V13.01,2013-09-17 18:58:00,
2013-09-17 14:03:00,57.3,52.5,29.35,SE,135,0.0,0.0,84,0.02,,---,0.02,VWS V13.01,2013-09-17 19:03:00,
2013-09-17 14:08:00,57.3,52.5,29.35,SE,135,0.8,0.8,84,0.02,,---,0.02,VWS V13.01,2013-09-17 19:08:00,
2013-09-17 14:13:00,57.3,52.5,29.34,SSE,158,0.0,0.0,84,0.02,,---,0.02,VWS V13.01,2013-09-17 19:13:00,
2013-09-17 14:19:00,57.3,52.5,29.34,SE,135,0.0,0.0,84,0.02,,---,0.02,VWS V13.01,2013-09-17 19:19:00,
2013-09-17 14:24:00,57.3,52.5,29.34,ESE,112,0.0,0.0,84,0.00,,---,0.02,VWS V13.01,2013-09-17 19:24:00,
2013-09-17 14:29:00,57.3,52.5,29.33,SE,135,0.0,0.0,84,0.00,,---,0.02,VWS V13.01,2013-09-17 19:29:00,
2013-09-17 14:34:00,57.3,52.5,29.33,SE,135,0.0,0.0,84,0.00,,---,0.02,VWS V13.01,2013-09-17 19:34:00,
2013-09-17 14:39:00,57.3,52.5,29.33,SE,135,0.0,0.0,84,0.00,,---,0.02,VWS V13.01,2013-09-17 19:39:00,
2013-09-17 14:44:00,57.3,52.5,29.33,ESE,112,4.0,4.0,84,0.00,,---,0.02,VWS V13.01,2013-09-17 19:44:00,
2013-09-17 14:49:00,57.3,52.5,29.33,SE,135,0.0,0.0,84,0.00,,---,0.02,VWS V13.01,2013-09-17 19:49:00,
2013-09-17 14:54:00,57.3,52.8,29.33,North,0,0.0,0.0,85,0.00,,---,0.02,VWS V13.01,2013-09-17 19:54:00,
2013-09-17 14:59:00,57.3,52.8,29.33,SE,135,0.0,0.0,85,0.00,,---,0.02,VWS V13.01,2013-09-17 19:59:00,
2013-09-17 15:04:00,57.3,52.8,29.32,ESE,112,0.0,0.0,85,0.00,,---,0.02,VWS V13.01,2013-09-17 20:04:00,
2013-09-17 15:09:00,57.3,52.8,29.32,SE,135,0.0,0.0,85,0.00,,---,0.02,VWS V13.01,2013-09-17 20:09:00,
2013-09-17 15:14:00,57.5,53.0,29.32,SE,135,0.0,0.0,85,0.00,,---,0.02,VWS V13.01,2013-09-17 20:14:00,
2013-09-17 15:19:00,57.5,53.0,29.31,SE,135,0.0,0.0,85,0.00,,---,0.02,VWS V13.01,2013-09-17 20:19:00,
2013-09-17 15:24:00,57.5,53.0,29.31,SE,135,0.0,0.0,85,0.00,,---,0.02,VWS V13.01,2013-09-17 20:24:00,
2013-09-17 15:29:00,57.7,53.2,29.30,SE,135,0.0,0.0,85,0.00,,---,0.02,VWS V13.01,2013-09-17 20:29:00,
2013-09-17 15:34:00,57.7,53.2,29.30,SE,135,0.0,0.0,85,0.00,,---,0.02,VWS V13.01,2013-09-17 20:34:00,
2013-09-17 15:39:00,57.9,53.7,29.30,SSE,158,0.0,0.0,86,0.00,,---,0.02,VWS V13.01,2013-09-17 20:39:00,
2013-09-17 15:44:00,57.9,53.7,29.30,SE,135,0.0,0.0,86,0.00,,---,0.02,VWS V13.01,2013-09-17 20:44:00,
2013-09-17 15:49:00,57.9,53.7,29.29,SE,135,0.0,0.0,86,0.00,,---,0.02,VWS V13.01,2013-09-17 20:49:00,
2013-09-17 15:54:00,57.9,53.7,29.29,SE,135,0.0,0.0,86,0.00,,---,0.02,VWS V13.01,2013-09-17 20:54:00,
2013-09-17 15:59:00,57.9,53.7,29.29,SSE,158,0.0,0.0,86,0.00,,---,0.02,VWS V13.01,2013-09-17 20:59:00,
2013-09-17 16:04:00,58.1,53.9,29.29,SSE,158,0.0,0.0,86,0.00,,---,0.02,VWS V13.01,2013-09-17 21:04:00,
2013-09-17 16:09:00,57.9,53.7,29.29,SSE,158,2.6,2.6,86,0.00,,---,0.02,VWS V13.01,2013-09-17 21:09:00,
2013-09-17 16:14:00,58.1,53.9,29.28,SE,135,3.0,3.0,86,0.00,,---,0.02,VWS V13.01,2013-09-17 21:14:00,
2013-09-17 16:19:00,57.9,53.7,29.29,SE,135,0.0,0.0,86,0.00,,---,0.02,VWS V13.01,2013-09-17 21:19:00,
2013-09-17 16:25:00,57.9,53.7,29.29,SE,135,4.0,4.0,86,0.00,,---,0.02,VWS V13.01,2013-09-17 21:25:00,
2013-09-17 16:30:00,57.9,53.7,29.28,SSE,158,0.0,0.0,86,0.00,,---,0.02,VWS V13.01,2013-09-17 21:30:00,
2013-09-17 16:35:00,57.9,53.7,29.28,SSE,158,0.0,0.0,86,0.00,,---,0.02,VWS V13.01,2013-09-17 21:35:00,
2013-09-17 16:40:00,57.9,53.7,29.28,SSE,158,0.0,0.0,86,0.00,,---,0.02,VWS V13.01,2013-09-17 21:40:00,
2013-09-17 16:45:00,57.9,53.7,29.28,SE,135,8.4,8.4,86,0.00,,---,0.02,VWS V13.01,2013-09-17 21:45:00,
2013-09-17 16:50:00,57.9,53.7,29.28,SE,135,0.0,0.0,86,0.00,,---,0.02,VWS V13.01,2013-09-17 21:50:00,
2013-09-17 16:55:00,57.9,53.7,29.27,SE,135,0.0,0.0,86,0.00,,---,0.02,VWS V13.01,2013-09-17 21:55:00,
2013-09-17 17:00:00,57.9,53.7,29.27,SSE,158,0.0,0.0,86,0.02,,---,0.04,VWS V13.01,2013-09-17 22:00:00,
2013-09-17 17:05:00,57.9,53.7,29.27,SSE,158,0.0,0.0,86,0.02,,---,0.04,VWS V13.01,2013-09-17 22:05:00,
2013-09-17 17:10:00,57.9,53.7,29.27,SE,135,0.0,0.0,86,0.02,,---,0.04,VWS V13.01,2013-09-17 22:10:00,
2013-09-17 17:15:00,57.7,53.5,29.27,SE,135,0.0,0.0,86,0.02,,---,0.04,VWS V13.01,2013-09-17 22:15:00,
2013-09-17 17:20:00,57.9,53.7,29.26,SSE,158,10.2,10.2,86,0.02,,---,0.04,VWS V13.01,2013-09-17 22:20:00,
2013-09-17 17:25:00,57.9,53.7,29.26,SE,135,0.0,0.0,86,0.02,,---,0.04,VWS V13.01,2013-09-17 22:25:00,
2013-09-17 17:30:00,57.9,53.7,29.27,ESE,112,0.0,0.0,86,0.02,,---,0.04,VWS V13.01,2013-09-17 22:30:00,
2013-09-17 17:35:00,57.9,53.7,29.26,SSE,158,0.0,0.0,86,0.02,,---,0.04,VWS V13.01,2013-09-17 22:35:00,
2013-09-17 17:40:00,57.9,53.7,29.26,SE,135,0.0,0.0,86,0.02,,---,0.04,VWS V13.01,2013-09-17 22:40:00,
2013-09-17 17:45:00,57.9,53.7,29.26,SE,135,0.0,0.0,86,0.02,,---,0.04,VWS V13.01,2013-09-17 22:45:00,
2013-09-17 17:50:00,57.9,53.7,29.26,SE,135,0.0,4.8,86,0.02,,---,0.04,VWS V13.01,2013-09-17 22:50:00,
2013-09-17 17:55:00,57.9,53.7,29.25,SE,135,0.0,0.0,86,0.02,,---,0.04,VWS V13.01,2013-09-17 22:55:00,
2013-09-17 18:00:00,57.9,53.7,29.25,SE,135,0.0,0.0,86,0.00,,---,0.04,VWS V13.01,2013-09-17 23:00:00,
2013-09-17 18:05:00,57.9,53.7,29.25,SE,135,0.0,0.0,86,0.00,,---,0.04,VWS V13.01,2013-09-17 23:05:00,
2013-09-17 18:10:00,57.9,53.7,29.25,ESE,112,0.0,0.0,86,0.00,,---,0.04,VWS V13.01,2013-09-17 23:10:00,
2013-09-17 18:15:00,57.9,53.7,29.25,SE,135,6.2,6.2,86,0.00,,---,0.04,VWS V13.01,2013-09-17 23:15:00,
2013-09-17 18:20:00,57.9,53.7,29.25,SSE,158,0.0,0.0,86,0.00,,---,0.04,VWS V13.01,2013-09-17 23:20:00,
2013-09-17 18:25:00,57.9,53.7,29.25,SE,135,0.0,0.0,86,0.00,,---,0.04,VWS V13.01,2013-09-17 23:25:00,
2013-09-17 18:30:00,57.9,53.7,29.26,SSE,158,0.0,0.0,86,0.00,,---,0.04,VWS V13.01,2013-09-17 23:30:00,
2013-09-17 18:35:00,57.9,53.7,29.25,SE,135,0.0,0.0,86,0.00,,---,0.04,VWS V13.01,2013-09-17 23:35:00,
2013-09-17 18:40:00,57.9,53.7,29.26,SE,135,0.0,0.0,86,0.00,,---,0.04,VWS V13.01,2013-09-17 23:40:00,
2013-09-17 18:45:00,57.9,53.7,29.25,SE,135,0.0,0.0,86,0.00,,---,0.04,VWS V13.01,2013-09-17 23:45:00,
2013-09-17 18:50:00,57.9,53.7,29.25,SSE,158,0.0,0.0,86,0.00,,---,0.04,VWS V13.01,2013-09-17 23:50:00,
2013-09-17 18:56:00,57.9,53.7,29.25,SE,135,0.0,0.0,86,0.00,,---,0.04,VWS V13.01,2013-09-17 23:56:00,
2013-09-17 19:01:00,57.9,53.7,29.24,SSE,158,0.0,0.0,86,0.00,,---,0.04,VWS V13.01,2013-09-18 00:01:00,
2013-09-17 19:06:00,57.9,53.7,29.24,SSE,158,0.0,0.0,86,0.00,,---,0.04,VWS V13.01,2013-09-18 00:06:00,
2013-09-17 19:11:00,57.9,54.1,29.24,SE,135,0.0,0.0,87,0.00,,---,0.04,VWS V13.01,2013-09-18 00:11:00,
2013-09-17 19:16:00,57.9,53.7,29.24,South,180,0.0,0.0,86,0.00,,---,0.04,VWS V13.01,2013-09-18 00:16:00,
2013-09-17 19:21:00,57.9,54.1,29.23,SE,135,0.0,0.0,87,0.00,,---,0.04,VWS V13.01,2013-09-18 00:21:00,
2013-09-17 19:26:00,57.9,54.1,29.23,SSE,158,0.0,0.0,87,0.00,,---,0.04,VWS V13.01,2013-09-18 00:26:00,
2013-09-17 19:31:00,58.1,54.3,29.23,SE,135,0.0,6.6,87,0.00,,---,0.04,VWS V13.01,2013-09-18 00:31:00,
2013-09-17 19:36:00,58.1,54.3,29.23,SE,135,0.0,0.0,87,0.00,,---,0.04,VWS V13.01,2013-09-18 00:36:00,
2013-09-17 19:41:00,58.1,54.3,29.23,SE,135,0.0,0.0,87,0.00,,---,0.04,VWS V13.01,2013-09-18 00:41:00,
2013-09-17 19:46:00,58.1,54.3,29.23,SE,135,0.0,6.6,87,0.00,,---,0.04,VWS V13.01,2013-09-18 00:46:00,
2013-09-17 19:51:00,58.1,54.3,29.23,SE,135,0.0,0.0,87,0.00,,---,0.04,VWS V13.01,2013-09-18 00:51:00,
2013-09-17 19:56:00,58.1,54.3,29.22,SE,135,11.0,11.0,87,0.00,,---,0.04,VWS V13.01,2013-09-18 00:56:00,
2013-09-17 20:01:00,58.1,54.3,29.22,SE,135,15.6,15.6,87,0.00,,---,0.04,VWS V13.01,2013-09-18 01:01:00,
2013-09-17 20:06:00,58.1,54.3,29.23,SE,135,7.0,7.0,87,0.00,,---,0.04,VWS V13.01,2013-09-18 01:06:00,
2013-09-17 20:11:00,58.2,54.4,29.22,SSE,158,0.0,0.0,87,0.00,,---,0.04,VWS V13.01,2013-09-18 01:11:00,
2013-09-17 20:16:00,58.2,54.4,29.23,SSE,158,0.0,0.0,87,0.00,,---,0.04,VWS V13.01,2013-09-18 01:16:00,
2013-09-17 20:22:00,58.2,54.4,29.23,SE,135,0.0,0.0,87,0.00,,---,0.04,VWS V13.01,2013-09-18 01:22:00,
2013-09-17 20:27:00,58.2,54.4,29.23,SE,135,0.0,0.0,87,0.00,,---,0.04,VWS V13.01,2013-09-18 01:27:00,
2013-09-17 20:32:00,58.2,54.4,29.23,SE,135,0.0,0.0,87,0.00,,---,0.04,VWS V13.01,2013-09-18 01:32:00,
2013-09-17 20:37:00,58.4,54.5,29.23,SSE,158,2.6,3.0,87,0.00,,---,0.04,VWS V13.01,2013-09-18 01:37:00,
2013-09-17 20:42:00,58.4,54.5,29.23,SE,135,0.0,0.0,87,0.00,,---,0.04,VWS V13.01,2013-09-18 01:42:00,
2013-09-17 20:47:00,58.4,54.5,29.23,SE,135,0.0,0.0,87,0.00,,---,0.04,VWS V13.01,2013-09-18 01:47:00,
2013-09-17 20:52:00,58.6,54.8,29.23,SE,135,0.0,0.0,87,0.00,,---,0.04,VWS V13.01,2013-09-18 01:52:00,
2013-09-17 20:57:00,58.6,54.4,29.22,SE,135,0.0,2.2,86,0.00,,---,0.04,VWS V13.01,2013-09-18 01:57:00,
2013-09-17 21:03:00,58.6,54.4,29.22,SE,135,0.0,0.0,86,0.00,,---,0.04,VWS V13.01,2013-09-18 02:03:00,
2013-09-17 21:09:00,58.8,55.0,29.23,SE,135,0.0,0.0,87,0.00,,---,0.04,VWS V13.01,2013-09-18 02:09:00,
2013-09-17 21:14:00,58.8,55.0,29.22,SSE,158,0.0,0.0,87,0.00,,---,0.04,VWS V13.01,2013-09-18 02:14:00,
2013-09-17 21:19:00,58.8,55.0,29.22,SE,135,0.0,0.0,87,0.00,,---,0.04,VWS V13.01,2013-09-18 02:19:00,
2013-09-17 21:24:00,58.8,55.0,29.22,SE,135,0.0,3.4,87,0.00,,---,0.04,VWS V13.01,2013-09-18 02:24:00,
2013-09-17 21:29:00,58.8,55.0,29.22,SSE,158,0.0,5.2,87,0.00,,---,0.04,VWS V13.01,2013-09-18 02:29:00,
2013-09-17 21:34:00,58.8,55.0,29.22,SE,135,0.0,0.0,87,0.00,,---,0.04,VWS V13.01,2013-09-18 02:34:00,
2013-09-17 21:39:00,58.8,55.0,29.22,South,180,0.0,0.0,87,0.00,,---,0.04,VWS V13.01,2013-09-18 02:39:00,
2013-09-17 21:44:00,58.8,55.0,29.22,SE,135,0.0,0.0,87,0.00,,---,0.04,VWS V13.01,2013-09-18 02:44:00,
2013-09-17 21:49:00,58.8,55.0,29.22,SE,135,18.2,18.2,87,0.00,,---,0.04,VWS V13.01,2013-09-18 02:49:00,
2013-09-17 21:54:00,58.8,55.0,29.22,SE,135,0.0,0.0,87,0.00,,---,0.04,VWS V13.01,2013-09-18 02:54:00,
2013-09-17 21:59:00,59.1,55.2,29.22,SE,135,0.0,0.0,87,0.00,,---,0.04,VWS V13.01,2013-09-18 02:59:00,
2013-09-17 22:04:00,59.3,55.4,29.23,SE,135,0.0,0.0,87,0.00,,---,0.04,VWS V13.01,2013-09-18 03:04:00,
2013-09-17 22:09:00,59.5,55.6,29.22,SE,135,0.0,0.0,87,0.00,,---,0.04,VWS V13.01,2013-09-18 03:09:00,
2013-09-17 22:14:00,59.5,55.6,29.22,SSE,158,0.0,1.6,87,0.00,,---,0.04,VWS V13.01,2013-09-18 03:14:00,
2013-09-17 22:19:00,59.5,55.6,29.23,South,180,0.0,0.0,87,0.00,,---,0.04,VWS V13.01,2013-09-18 03:19:00,
2013-09-17 22:24:00,59.7,55.8,29.23,SE,135,4.8,4.8,87,0.00,,---,0.04,VWS V13.01,2013-09-18 03:24:00,
2013-09-17 22:29:00,59.7,55.8,29.23,SE,135,0.0,0.0,87,0.00,,---,0.04,VWS V13.01,2013-09-18 03:29:00,
2013-09-17 22:34:00,59.7,55.8,29.23,SE,135,0.0,0.0,87,0.00,,---,0.04,VWS V13.01,2013-09-18 03:34:00,
2013-09-17 22:39:00,59.9,56.0,29.23,SE,135,8.8,8.8,87,0.00,,---,0.04,VWS V13.01,2013-09-18 03:39:00,
2013-09-17 22:44:00,60.0,56.1,29.23,SSE,158,0.0,12.4,87,0.00,,---,0.04,VWS V13.01,2013-09-18 03:44:00,
2013-09-17 22:49:00,60.0,56.1,29.23,SSW,202,18.6,18.6,87,0.00,,---,0.04,VWS V13.01,2013-09-18 03:49:00,
2013-09-17 22:54:00,60.0,56.1,29.22,SSE,158,0.0,12.0,87,0.00,,---,0.04,VWS V13.01,2013-09-18 03:54:00,
2013-09-17 22:59:00,60.2,56.3,29.22,SSE,158,0.0,0.0,87,0.00,,---,0.04,VWS V13.01,2013-09-18 03:59:00,
2013-09-17 23:01:00,60.2,56.3,29.22,SSE,158,16.4,16.4,87,0.00,,---,0.04,VWS V13.01,2013-09-18 04:01:00,
2013-09-17 23:02:00,60.2,56.3,29.22,SSE,158,16.4,16.4,87,0.00,,---,0.04,VWS V13.01,2013-09-18 04:02:00,
2013-09-17 23:03:00,60.2,56.3,29.22,SSE,158,16.4,16.4,87,0.00,,---,0.04,VWS V13.01,2013-09-18 04:03:00,
2013-09-17 23:04:00,60.4,56.5,29.22,SE,135,0.0,0.0,87,0.00,,---,0.04,VWS V13.01,2013-09-18 04:04:00,
2013-09-17 23:09:00,60.4,56.5,29.22,SE,135,6.6,6.6,87,0.00,,---,0.04,VWS V13.01,2013-09-18 04:09:00,
2013-09-17 23:14:00,60.4,56.5,29.22,SSE,158,10.2,10.2,87,0.00,,---,0.04,VWS V13.01,2013-09-18 04:14:00,
2013-09-17 23:19:00,60.4,56.5,29.22,South,180,6.6,6.6,87,0.00,,---,0.04,VWS V13.01,2013-09-18 04:19:00,
2013-09-17 23:24:00,60.6,56.7,29.22,SE,135,11.6,14.6,87,0.00,,---,0.04,VWS V13.01,2013-09-18 04:24:00,
2013-09-17 23:29:00,60.6,56.7,29.22,SSE,158,9.2,9.2,87,0.00,,---,0.04,VWS V13.01,2013-09-18 04:29:00,
2013-09-17 23:34:00,60.6,56.7,29.22,SSE,158,7.0,7.0,87,0.00,,---,0.04,VWS V13.01,2013-09-18 04:34:00,
2013-09-17 23:39:00,60.6,56.7,29.22,SSE,158,0.0,12.0,87,0.00,,---,0.04,VWS V13.01,2013-09-18 04:39:00,
2013-09-17 23:44:00,60.6,56.7,29.22,SE,135,14.2,14.2,87,0.00,,---,0.04,VWS V13.01,2013-09-18 04:44:00,
2013-09-17 23:49:00,60.6,56.7,29.22,SE,135,8.0,8.0,87,0.00,,---,0.04,VWS V13.01,2013-09-18 04:49:00,
2013-09-17 23:54:00,60.8,56.9,29.22,SSE,158,4.8,10.6,87,0.00,,---,0.04,VWS V13.01,2013-09-18 04:54:00,
2013-09-17 23:59:00,60.8,56.9,29.22,ESE,112,16.0,16.0,87,0.00,,---,0.04,VWS V13.01,2013-09-18 04:59:00,